Time;durP1;ratioP1;P1;durP2;ratioP2;P2;SDS_P1;SDS_P2;PMS_P1;PMS_P2;Temp;Humidity;BMP_temperature;BMP_pressure;BME280_temperature;BME280_humidity;BME280_pressure;Samples;Min_cycle;Max_cycle;Signal;HPM_P1;HPM_P2
2024/01/30 00:01:00;;;;;;;8.33;4.93;;;1.70;99.90;;;;;;5113322;28;20273;-76
2024/01/30 00:03:26;;;;;;;6.50;4.93;;;1.70;99.90;;;;;;5114083;28;20215;-75
2024/01/30 00:05:52;;;;;;;6.43;5.00;;;1.60;99.90;;;;;;5113811;28;20176;-75
2024/01/30 00:08:17;;;;;;;6.10;4.57;;;1.60;99.90;;;;;;5113828;28;20297;-75
2024/01/30 00:10:43;;;;;;;6.57;4.90;;;1.60;99.90;;;;;;5114605;28;20186;-75
2024/01/30 00:13:08;;;;;;;6.53;5.03;;;1.60;99.90;;;;;;5114894;28;20195;-75
2024/01/30 00:15:34;;;;;;;7.37;4.97;;;1.60;99.90;;;;;;5113903;28;20186;-75
2024/01/30 00:18:00;;;;;;;7.50;4.73;;;1.70;99.90;;;;;;5113625;28;20262;-75
2024/01/30 00:20:25;;;;;;;5.80;4.53;;;1.80;99.90;;;;;;5114132;28;20535;-75
2024/01/30 00:22:51;;;;;;;6.13;4.63;;;1.80;99.90;;;;;;5114701;28;20243;-75
2024/01/30 00:25:16;;;;;;;6.83;4.33;;;1.80;99.90;;;;;;5114800;28;20187;-76
2024/01/30 00:27:42;;;;;;;6.50;5.07;;;1.70;99.90;;;;;;5114610;28;20203;-75
2024/01/30 00:30:08;;;;;;;5.97;4.20;;;1.70;99.90;;;;;;5113386;28;20171;-75
2024/01/30 00:32:34;;;;;;;7.30;4.40;;;1.60;99.90;;;;;;5113006;28;20281;-76
2024/01/30 00:34:59;;;;;;;5.43;4.27;;;1.60;99.90;;;;;;5114495;28;20594;-75
2024/01/30 00:37:25;;;;;;;5.60;4.43;;;1.60;99.90;;;;;;5113452;28;20585;-77
2024/01/30 00:39:50;;;;;;;5.13;4.30;;;1.50;99.90;;;;;;5113192;28;20190;-76
2024/01/30 00:42:16;;;;;;;6.67;4.50;;;1.60;99.90;;;;;;5114081;28;20199;-76
2024/01/30 00:44:42;;;;;;;5.43;4.33;;;1.60;99.90;;;;;;5113236;28;20562;-76
2024/01/30 00:47:07;;;;;;;8.13;4.77;;;1.70;99.90;;;;;;5113256;28;20202;-77
2024/01/30 00:49:33;;;;;;;5.43;4.07;;;1.80;99.90;;;;;;5114012;28;20171;-76
2024/01/30 00:51:58;;;;;;;6.87;4.87;;;1.80;99.90;;;;;;5112820;28;20703;-76
2024/01/30 00:54:24;;;;;;;5.60;4.40;;;1.80;99.90;;;;;;5114575;28;20171;-76
2024/01/30 00:56:49;;;;;;;5.70;4.07;;;1.80;99.90;;;;;;5114132;28;20179;-77
2024/01/30 00:59:15;;;;;;;5.40;4.33;;;1.80;99.90;;;;;;5114386;28;20179;-75
2024/01/30 01:01:40;;;;;;;6.57;4.43;;;1.80;99.90;;;;;;5113475;28;20194;-76
2024/01/30 01:04:07;;;;;;;6.80;4.50;;;1.80;99.90;;;;;;5112985;28;20218;-75
2024/01/30 01:06:32;;;;;;;5.90;4.70;;;1.80;99.90;;;;;;5113037;28;20344;-76
2024/01/30 01:08:58;;;;;;;6.00;4.30;;;1.70;99.90;;;;;;5114188;28;20253;-76
2024/01/30 01:11:23;;;;;;;6.93;4.57;;;1.70;99.90;;;;;;5112242;28;20191;-76
2024/01/30 01:13:49;;;;;;;7.07;4.40;;;1.70;99.90;;;;;;5114295;28;20175;-76
2024/01/30 01:16:14;;;;;;;5.37;4.33;;;1.60;99.90;;;;;;5112849;28;20228;-76
2024/01/30 01:18:40;;;;;;;7.40;4.40;;;1.50;99.90;;;;;;5113865;28;20536;-77
2024/01/30 01:21:06;;;;;;;5.30;4.53;;;1.50;99.90;;;;;;5111839;28;20178;-76
2024/01/30 01:23:31;;;;;;;7.23;4.23;;;1.60;99.90;;;;;;5112653;28;20178;-76
2024/01/30 01:25:59;;;;;;;5.33;4.10;;;1.50;99.90;;;;;;5113646;28;20195;-76
2024/01/30 01:28:25;;;;;;;5.43;4.20;;;1.40;99.90;;;;;;5112815;28;20199;-76
2024/01/30 01:30:51;;;;;;;5.37;4.20;;;1.30;99.90;;;;;;5113068;28;20178;-77
2024/01/30 01:33:17;;;;;;;5.57;3.87;;;1.30;99.90;;;;;;5113477;27;20180;-75
2024/01/30 01:35:42;;;;;;;5.57;4.33;;;1.20;99.90;;;;;;5112349;28;20711;-76
2024/01/30 01:38:08;;;;;;;5.43;4.17;;;1.20;99.90;;;;;;5112331;28;20175;-76
2024/01/30 01:40:34;;;;;;;5.97;4.60;;;1.20;99.90;;;;;;5111762;28;20186;-76
2024/01/30 01:43:04;;;;;;;7.80;5.33;;;1.20;99.90;;;;;;5112376;28;20195;-76
2024/01/30 01:45:29;;;;;;;5.00;4.27;;;1.30;99.90;;;;;;5111580;28;20185;-76
2024/01/30 01:47:55;;;;;;;4.73;4.03;;;1.30;99.90;;;;;;5113018;28;20198;-75
2024/01/30 01:50:21;;;;;;;5.30;4.30;;;1.20;99.90;;;;;;5102956;28;20171;-76
2024/01/30 01:52:50;;;;;;;5.63;4.17;;;1.20;99.90;;;;;;5112156;28;20229;-76
2024/01/30 01:55:18;;;;;;;6.27;4.43;;;1.10;99.90;;;;;;5112157;28;20174;-75
2024/01/30 01:57:44;;;;;;;7.20;4.83;;;1.00;99.90;;;;;;5111973;28;20195;-76
2024/01/30 02:00:11;;;;;;;7.93;5.20;;;1.00;99.90;;;;;;5113227;28;20208;-76
2024/01/30 02:02:38;;;;;;;6.80;4.63;;;1.00;99.90;;;;;;5111382;28;20240;-76
2024/01/30 02:05:04;;;;;;;5.13;4.00;;;1.10;99.90;;;;;;5112486;28;20177;-76
2024/01/30 02:07:30;;;;;;;5.50;3.83;;;1.00;99.90;;;;;;5111727;28;20212;-76
2024/01/30 02:09:56;;;;;;;5.83;4.40;;;0.90;99.90;;;;;;5103363;28;20224;-76
2024/01/30 02:12:22;;;;;;;6.30;4.30;;;0.90;99.90;;;;;;5108885;28;20196;-77
2024/01/30 02:14:48;;;;;;;5.47;4.30;;;0.90;99.90;;;;;;5106273;28;20203;-76
2024/01/30 02:17:15;;;;;;;4.93;3.90;;;1.00;99.90;;;;;;5112999;28;20200;-77
2024/01/30 02:19:40;;;;;;;5.80;4.17;;;1.00;99.90;;;;;;5112802;28;20184;-76
2024/01/30 02:22:07;;;;;;;5.73;4.40;;;1.10;99.90;;;;;;5103066;28;20284;-76
2024/01/30 02:24:32;;;;;;;4.70;3.87;;;1.10;99.90;;;;;;5112188;28;20176;-76
2024/01/30 02:26:58;;;;;;;6.10;4.50;;;1.10;99.90;;;;;;5112081;28;20201;-77
2024/01/30 02:29:23;;;;;;;7.43;4.67;;;1.10;99.90;;;;;;5113372;28;20198;-76
2024/01/30 02:31:49;;;;;;;6.23;4.97;;;1.10;99.90;;;;;;5111429;28;20232;-76
2024/01/30 02:34:15;;;;;;;6.23;4.23;;;1.10;99.90;;;;;;5111930;28;20266;-76
2024/01/30 02:36:43;;;;;;;5.43;4.40;;;1.10;99.90;;;;;;5113247;28;20178;-77
2024/01/30 02:39:09;;;;;;;6.47;4.33;;;1.20;99.90;;;;;;5111686;28;20183;-76
2024/01/30 02:41:50;;;;;;;8.17;4.77;;;1.20;99.90;;;;;;5112511;28;20228;-76
2024/01/30 02:44:15;;;;;;;5.27;3.90;;;1.20;99.90;;;;;;5112190;28;20188;-76
2024/01/30 02:46:41;;;;;;;5.63;4.33;;;1.20;99.90;;;;;;5103467;28;20209;-76
2024/01/30 02:49:06;;;;;;;5.87;4.60;;;1.10;99.90;;;;;;5095623;28;20166;-76
2024/01/30 02:51:32;;;;;;;6.83;4.77;;;1.20;99.90;;;;;;5092149;28;20211;-76
2024/01/30 02:53:57;;;;;;;6.87;4.43;;;1.20;99.90;;;;;;5092589;28;20167;-76
2024/01/30 02:56:23;;;;;;;6.07;4.50;;;1.20;99.90;;;;;;5091449;28;20737;-76
2024/01/30 02:58:49;;;;;;;6.87;4.60;;;1.10;99.90;;;;;;5091236;28;20213;-76
2024/01/30 03:01:14;;;;;;;7.17;4.80;;;1.20;99.90;;;;;;5090706;28;20221;-76
2024/01/30 03:03:40;;;;;;;6.63;4.70;;;1.20;99.90;;;;;;5091339;28;20185;-76
2024/01/30 03:06:06;;;;;;;5.63;4.47;;;1.10;99.90;;;;;;5092719;28;20562;-77
2024/01/30 03:08:31;;;;;;;7.23;4.33;;;1.10;99.90;;;;;;5092927;28;20163;-76
2024/01/30 03:10:57;;;;;;;6.47;4.60;;;1.10;99.90;;;;;;5094540;28;20195;-76
2024/01/30 03:13:24;;;;;;;8.10;5.07;;;1.00;99.90;;;;;;5095203;28;20177;-77
2024/01/30 03:15:50;;;;;;;6.70;4.73;;;1.00;99.90;;;;;;5095420;28;20650;-77
2024/01/30 03:18:16;;;;;;;6.27;4.60;;;0.90;99.90;;;;;;5112601;28;20206;-77
2024/01/30 03:20:41;;;;;;;9.30;5.10;;;0.90;99.90;;;;;;5114678;28;20198;-76
2024/01/30 03:23:07;;;;;;;8.03;5.10;;;0.90;99.90;;;;;;5106867;28;20201;-77
2024/01/30 03:25:32;;;;;;;7.00;4.80;;;0.90;99.90;;;;;;5115421;28;20173;-76
2024/01/30 03:27:58;;;;;;;6.57;5.00;;;1.00;99.90;;;;;;5116273;28;20225;-77
2024/01/30 03:30:23;;;;;;;7.17;4.97;;;1.00;99.90;;;;;;5114853;28;20204;-76
2024/01/30 03:32:50;;;;;;;7.17;5.20;;;0.90;99.90;;;;;;5115200;28;20197;-77
2024/01/30 03:35:15;;;;;;;6.40;4.80;;;0.90;99.90;;;;;;5115174;28;20237;-76
2024/01/30 03:37:41;;;;;;;5.53;4.90;;;1.00;99.90;;;;;;5115032;28;20178;-77
2024/01/30 03:40:07;;;;;;;6.43;4.73;;;1.00;99.90;;;;;;5116047;28;20201;-77
2024/01/30 03:42:33;;;;;;;6.83;4.63;;;0.90;99.90;;;;;;5114475;28;20608;-76
2024/01/30 03:44:58;;;;;;;6.47;4.67;;;0.90;99.90;;;;;;5116030;28;20671;-76
2024/01/30 03:47:24;;;;;;;6.00;4.57;;;0.90;99.90;;;;;;5114663;28;20262;-77
2024/01/30 03:49:49;;;;;;;6.07;4.70;;;0.90;99.90;;;;;;5109208;28;20174;-76
2024/01/30 03:52:15;;;;;;;5.87;4.40;;;0.80;99.90;;;;;;5095209;28;20230;-77
2024/01/30 03:54:40;;;;;;;6.27;4.63;;;0.80;99.90;;;;;;5095630;28;20178;-78
2024/01/30 03:57:06;;;;;;;7.10;4.83;;;0.90;99.90;;;;;;5094441;28;20627;-76
2024/01/30 03:59:32;;;;;;;6.30;4.53;;;0.80;99.90;;;;;;5095264;28;20179;-77
2024/01/30 04:01:57;;;;;;;6.63;4.77;;;0.80;99.90;;;;;;5093633;28;20244;-77
2024/01/30 04:04:23;;;;;;;7.40;4.53;;;0.80;99.90;;;;;;5094056;28;20177;-77
2024/01/30 04:06:48;;;;;;;6.53;4.20;;;0.90;99.90;;;;;;5094086;28;20605;-76
2024/01/30 04:09:14;;;;;;;5.70;4.53;;;0.90;99.90;;;;;;5094376;28;20532;-77
2024/01/30 04:11:40;;;;;;;5.10;4.20;;;0.90;99.90;;;;;;5094691;28;20285;-77
2024/01/30 04:14:06;;;;;;;5.67;4.27;;;1.00;99.90;;;;;;5093703;28;20194;-77
2024/01/30 04:16:31;;;;;;;6.53;4.50;;;1.00;99.90;;;;;;5095287;28;20177;-77
2024/01/30 04:18:58;;;;;;;5.97;4.70;;;1.00;99.90;;;;;;5094021;28;20185;-76
2024/01/30 04:21:23;;;;;;;6.40;4.57;;;0.90;99.90;;;;;;5092853;28;20199;-77
2024/01/30 04:23:51;;;;;;;5.23;4.23;;;0.90;99.90;;;;;;5094746;28;20179;-78
2024/01/30 04:26:16;;;;;;;5.97;4.40;;;0.80;99.90;;;;;;5094924;28;20197;-76
2024/01/30 04:28:42;;;;;;;6.03;4.50;;;0.90;99.90;;;;;;5094778;28;20175;-76
2024/01/30 04:31:08;;;;;;;6.17;4.17;;;0.90;99.90;;;;;;5093124;28;20234;-76
2024/01/30 04:33:34;;;;;;;6.20;4.10;;;0.80;99.90;;;;;;5094648;28;20220;-77
2024/01/30 04:35:59;;;;;;;4.67;3.87;;;0.70;99.90;;;;;;5094705;28;20172;-76
2024/01/30 04:38:25;;;;;;;5.63;4.13;;;0.60;99.90;;;;;;5093320;28;20190;-76
2024/01/30 04:40:50;;;;;;;5.13;3.87;;;0.70;99.90;;;;;;5093517;28;20177;-76
2024/01/30 04:43:16;;;;;;;5.57;4.00;;;0.70;99.90;;;;;;5094461;28;20191;-77
2024/01/30 04:45:42;;;;;;;5.43;4.07;;;0.70;99.90;;;;;;5093228;28;20173;-76
2024/01/30 04:48:07;;;;;;;4.97;4.03;;;0.70;99.90;;;;;;5094193;28;20267;-76
2024/01/30 04:50:33;;;;;;;6.00;4.17;;;0.80;99.90;;;;;;5094081;28;20174;-76
2024/01/30 04:52:58;;;;;;;6.73;4.47;;;0.80;99.90;;;;;;5140924;22;20226;-78
2024/01/30 04:55:24;;;;;;;7.90;4.73;;;0.80;99.90;;;;;;5055400;28;20860;-77
2024/01/30 04:57:49;;;;;;;5.13;3.80;;;0.80;99.90;;;;;;5055347;28;20178;-77
2024/01/30 05:00:15;;;;;;;5.87;4.20;;;0.80;99.90;;;;;;5073068;28;20169;-78
2024/01/30 05:02:41;;;;;;;6.63;4.20;;;0.80;99.90;;;;;;5063664;28;20199;-78
2024/01/30 05:05:07;;;;;;;6.00;4.20;;;0.80;99.90;;;;;;5073183;28;20223;-78
2024/01/30 05:07:34;;;;;;;5.60;4.30;;;0.80;99.90;;;;;;5071811;28;20206;-78
2024/01/30 05:09:59;;;;;;;5.63;4.03;;;0.70;99.90;;;;;;5072758;28;20165;-78
2024/01/30 05:12:25;;;;;;;5.83;4.43;;;0.70;99.90;;;;;;5071156;28;20206;-78
2024/01/30 05:14:51;;;;;;;6.30;4.27;;;0.70;99.90;;;;;;5073085;28;20265;-79
2024/01/30 05:17:16;;;;;;;7.03;4.60;;;0.70;99.90;;;;;;5071581;28;20175;-78
2024/01/30 05:19:44;;;;;;;5.63;4.13;;;0.70;99.90;;;;;;5072527;28;20265;-77
2024/01/30 05:22:09;;;;;;;6.37;4.43;;;0.80;99.90;;;;;;5072412;28;20198;-77
2024/01/30 05:24:37;;;;;;;6.00;4.30;;;0.80;99.90;;;;;;5071380;28;20182;-79
2024/01/30 05:27:02;;;;;;;7.67;4.57;;;0.90;99.90;;;;;;5071502;28;20202;-78
2024/01/30 05:29:28;;;;;;;5.50;4.30;;;0.90;99.90;;;;;;5072623;28;20279;-77
2024/01/30 05:31:54;;;;;;;5.00;4.20;;;0.90;99.90;;;;;;5071537;28;20190;-77
2024/01/30 05:34:19;;;;;;;6.50;4.33;;;1.00;99.90;;;;;;5072622;28;20174;-80
2024/01/30 05:36:45;;;;;;;5.63;4.40;;;0.90;99.90;;;;;;5071219;28;20175;-78
2024/01/30 05:39:10;;;;;;;6.57;4.83;;;1.00;99.90;;;;;;5071153;28;20171;-77
2024/01/30 05:41:36;;;;;;;5.37;4.37;;;1.00;99.90;;;;;;5071631;28;20222;-78
2024/01/30 05:44:02;;;;;;;7.80;4.70;;;1.00;99.90;;;;;;5071173;28;20555;-78
2024/01/30 05:46:27;;;;;;;7.30;4.37;;;0.80;99.90;;;;;;5072458;28;20255;-77
2024/01/30 05:48:53;;;;;;;5.10;3.90;;;0.80;99.90;;;;;;5072512;28;20172;-77
2024/01/30 05:51:19;;;;;;;6.90;4.50;;;0.70;99.90;;;;;;5070494;28;20221;-78
2024/01/30 05:53:44;;;;;;;4.97;4.00;;;0.60;99.90;;;;;;5070959;28;20182;-78
2024/01/30 05:56:10;;;;;;;5.47;4.23;;;0.60;99.90;;;;;;5070768;28;20669;-79
2024/01/30 05:58:37;;;;;;;6.13;4.23;;;0.60;99.90;;;;;;5072312;28;20224;-77
2024/01/30 06:01:06;;;;;;;6.93;4.43;;;0.60;99.90;;;;;;5071709;28;20645;-77
2024/01/30 06:03:31;;;;;;;5.53;4.17;;;0.70;99.90;;;;;;5070764;28;20194;-78
2024/01/30 06:05:57;;;;;;;5.10;3.83;;;0.70;99.90;;;;;;5072079;28;20177;-76
2024/01/30 06:08:23;;;;;;;4.93;3.67;;;0.70;99.90;;;;;;5071899;28;20200;-78
2024/01/30 06:10:49;;;;;;;4.93;4.40;;;0.70;99.90;;;;;;5070362;28;20171;-78
2024/01/30 06:13:14;;;;;;;6.43;4.10;;;0.70;99.90;;;;;;5071841;28;20197;-78
2024/01/30 06:15:40;;;;;;;5.70;3.73;;;0.70;99.90;;;;;;5072011;28;20225;-78
2024/01/30 06:18:05;;;;;;;4.77;3.97;;;0.80;99.90;;;;;;5070841;28;20177;-79
2024/01/30 06:20:31;;;;;;;5.20;3.87;;;0.80;99.90;;;;;;5072155;28;20177;-81
2024/01/30 06:22:56;;;;;;;6.23;4.60;;;0.80;99.90;;;;;;5071139;28;20194;-81
2024/01/30 06:25:22;;;;;;;6.40;4.73;;;0.80;99.90;;;;;;5072524;28;20213;-81
2024/01/30 06:27:48;;;;;;;5.47;4.03;;;0.80;99.90;;;;;;5072549;28;20324;-81
2024/01/30 06:30:14;;;;;;;7.90;4.30;;;0.80;99.90;;;;;;5071201;28;20200;-81
2024/01/30 06:32:39;;;;;;;5.47;4.57;;;0.90;99.90;;;;;;5070053;28;20189;-79
2024/01/30 06:35:06;;;;;;;8.50;5.80;;;0.80;99.90;;;;;;5070790;28;20175;-78
2024/01/30 06:37:31;;;;;;;6.73;4.43;;;1.60;99.90;;;;;;5070938;28;20237;-79
2024/01/30 06:39:57;;;;;;;4.77;4.13;;;2.50;99.90;;;;;;5070082;28;20269;-78
2024/01/30 06:42:22;;;;;;;6.70;4.10;;;3.10;99.90;;;;;;5070130;28;20227;-78
2024/01/30 06:44:48;;;;;;;5.30;4.53;;;3.60;99.90;;;;;;5076728;28;20660;-80
2024/01/30 06:47:13;;;;;;;5.23;4.27;;;3.80;99.90;;;;;;5076482;28;20196;-83
2024/01/30 06:49:39;;;;;;;6.10;4.23;;;3.60;10.10;;;;;;5076408;28;20161;-83
2024/01/30 06:52:05;;;;;;;5.47;4.50;;;3.20;48.70;;;;;;5075940;28;20287;-83
2024/01/30 06:54:32;;;;;;;7.40;4.97;;;2.70;99.90;;;;;;5074961;28;20314;-83
2024/01/30 06:56:58;;;;;;;8.63;4.97;;;2.30;99.90;;;;;;5076431;28;20177;-83
2024/01/30 06:59:24;;;;;;;7.93;4.90;;;2.00;99.90;;;;;;5076717;28;20177;-84
2024/01/30 07:01:49;;;;;;;6.43;5.00;;;1.80;99.90;;;;;;5076318;28;20198;-82
2024/01/30 07:04:15;;;;;;;6.57;4.83;;;1.60;99.90;;;;;;5077947;28;20621;-82
2024/01/30 07:06:41;;;;;;;7.10;5.00;;;1.50;99.90;;;;;;5077493;28;20192;-81
2024/01/30 07:09:08;;;;;;;6.37;4.67;;;1.40;99.90;;;;;;5076446;28;20183;-83
2024/01/30 07:11:33;;;;;;;6.50;4.97;;;1.30;99.90;;;;;;5076881;28;20654;-84
2024/01/30 07:13:59;;;;;;;7.23;5.30;;;1.30;99.90;;;;;;5077661;28;20176;-82
2024/01/30 07:16:25;;;;;;;6.40;4.73;;;1.30;99.90;;;;;;5074578;28;20229;-85
2024/01/30 07:18:51;;;;;;;7.90;5.53;;;1.30;99.90;;;;;;5074852;28;20176;-82
2024/01/30 07:21:17;;;;;;;7.97;5.90;;;1.30;99.90;;;;;;5075101;28;20243;-82
2024/01/30 07:23:42;;;;;;;6.17;5.57;;;1.30;99.90;;;;;;5077144;28;20180;-83
2024/01/30 07:26:09;;;;;;;7.90;5.17;;;1.40;99.90;;;;;;5076699;28;20182;-82
2024/01/30 07:28:35;;;;;;;7.23;4.87;;;1.40;99.90;;;;;;5076036;28;20212;-82
2024/01/30 07:31:01;;;;;;;7.17;5.20;;;1.50;99.90;;;;;;5077057;28;20180;-82
2024/01/30 07:33:27;;;;;;;7.10;5.60;;;1.50;99.90;;;;;;5077287;28;20204;-83
2024/01/30 07:35:53;;;;;;;8.27;5.77;;;1.50;99.90;;;;;;5076716;28;20176;-82
2024/01/30 07:38:19;;;;;;;7.03;5.47;;;1.40;99.90;;;;;;5076375;28;20205;-81
2024/01/30 07:40:45;;;;;;;7.33;5.87;;;1.50;99.90;;;;;;5078034;28;20189;-81
2024/01/30 07:43:11;;;;;;;9.33;5.80;;;1.50;99.90;;;;;;5077376;28;20290;-82
2024/01/30 07:45:38;;;;;;;6.53;5.53;;;1.50;99.90;;;;;;5076207;28;20180;-81
2024/01/30 07:48:08;;;;;;;7.33;5.93;;;1.50;99.90;;;;;;5077151;28;20305;-82
2024/01/30 07:50:33;;;;;;;7.67;5.53;;;1.50;99.90;;;;;;5076685;28;20225;-81
2024/01/30 07:53:00;;;;;;;7.87;5.77;;;1.50;99.90;;;;;;5077347;28;20216;-81
2024/01/30 07:55:28;;;;;;;8.73;6.07;;;1.50;99.90;;;;;;5075183;28;20645;-82
2024/01/30 07:57:54;;;;;;;7.77;6.17;;;1.60;99.90;;;;;;5077322;28;20179;-84
2024/01/30 08:00:21;;;;;;;8.67;6.53;;;1.60;99.90;;;;;;5076832;28;20182;-80
2024/01/30 08:02:46;;;;;;;8.40;6.47;;;1.60;99.90;;;;;;5071161;28;20599;-80
2024/01/30 08:05:14;;;;;;;9.33;7.30;;;1.70;99.90;;;;;;5056742;28;20264;-81
2024/01/30 08:07:40;;;;;;;8.37;6.50;;;1.70;99.90;;;;;;5056807;28;20222;-81
2024/01/30 08:10:06;;;;;;;10.37;7.40;;;1.90;99.90;;;;;;5056313;28;20176;-81
2024/01/30 08:12:31;;;;;;;11.53;7.43;;;2.10;99.90;;;;;;5054684;28;20191;-81
2024/01/30 08:14:57;;;;;;;11.07;7.13;;;2.30;99.90;;;;;;5056537;28;20176;-81
2024/01/30 08:17:23;;;;;;;8.43;6.20;;;2.50;99.90;;;;;;5056431;28;20259;-81
2024/01/30 08:19:48;;;;;;;9.47;6.60;;;2.80;99.90;;;;;;5054946;28;20181;-79
2024/01/30 08:22:14;;;;;;;9.93;6.43;;;3.10;99.90;;;;;;5056169;28;20201;-81
2024/01/30 08:24:41;;;;;;;8.97;6.23;;;3.50;99.90;;;;;;5056431;28;20184;-80
2024/01/30 08:27:09;;;;;;;8.60;6.60;;;4.00;99.90;;;;;;5055535;28;20205;-80
2024/01/30 08:29:35;;;;;;;10.93;6.47;;;4.00;99.90;;;;;;5056218;28;20183;-81
2024/01/30 08:32:01;;;;;;;11.67;8.43;;;3.90;99.90;;;;;;5054816;28;20190;-81
2024/01/30 08:34:27;;;;;;;11.17;9.10;;;3.80;99.90;;;;;;5055245;28;20231;-80
2024/01/30 08:36:53;;;;;;;10.30;6.77;;;3.70;99.90;;;;;;5055587;28;20604;-80
2024/01/30 08:39:19;;;;;;;10.10;7.57;;;3.50;99.90;;;;;;5056756;28;20174;-79
2024/01/30 08:41:44;;;;;;;8.63;6.03;;;3.50;99.90;;;;;;5056265;28;20213;-80
2024/01/30 08:44:11;;;;;;;7.67;6.20;;;3.30;99.90;;;;;;5056436;28;20182;-80
2024/01/30 08:46:36;;;;;;;9.23;6.63;;;3.20;99.90;;;;;;5058680;28;20284;-80
2024/01/30 08:49:04;;;;;;;10.53;7.57;;;3.10;99.90;;;;;;5072809;28;20267;-81
2024/01/30 08:51:30;;;;;;;11.97;8.00;;;3.10;99.90;;;;;;5063464;28;20558;-80
2024/01/30 08:53:55;;;;;;;10.27;7.37;;;3.10;99.90;;;;;;5063650;28;20649;-80
2024/01/30 08:56:21;;;;;;;8.47;7.23;;;3.10;99.90;;;;;;5065722;28;20184;-81
2024/01/30 08:58:47;;;;;;;10.30;7.37;;;3.10;99.90;;;;;;5055973;28;20180;-80
2024/01/30 09:01:12;;;;;;;10.50;7.60;;;3.20;99.90;;;;;;5062650;28;20192;-80
2024/01/30 09:03:40;;;;;;;13.93;8.37;;;3.20;99.90;;;;;;5060857;28;20566;-80
2024/01/30 09:06:12;;;;;;;11.90;8.53;;;3.30;99.90;;;;;;5074664;28;20264;-79
2024/01/30 09:08:38;;;;;;;10.90;8.27;;;3.40;99.90;;;;;;5073983;28;20204;-81
2024/01/30 09:11:13;;;;;;;14.83;9.17;;;3.50;99.90;;;;;;5066704;28;20272;-80
2024/01/30 09:13:39;;;;;;;12.80;9.50;;;3.50;99.90;;;;;;5067643;28;20195;-81
2024/01/30 09:16:05;;;;;;;12.57;9.00;;;3.70;99.90;;;;;;5067344;28;20182;-81
2024/01/30 09:18:30;;;;;;;14.03;9.47;;;3.80;99.90;;;;;;5063189;28;20264;-81
2024/01/30 09:20:56;;;;;;;12.10;9.03;;;3.90;99.90;;;;;;5059329;28;20720;-80
2024/01/30 09:23:22;;;;;;;11.73;8.63;;;4.00;99.90;;;;;;5074398;28;20225;-79
2024/01/30 09:25:48;;;;;;;11.50;8.30;;;4.00;99.90;;;;;;5058888;28;20185;-81
2024/01/30 09:28:13;;;;;;;11.67;8.27;;;4.10;99.90;;;;;;5070491;28;20189;-81
2024/01/30 09:30:39;;;;;;;12.53;9.90;;;4.20;99.90;;;;;;5051890;28;20184;-79
2024/01/30 09:33:06;;;;;;;14.10;9.93;;;4.30;99.90;;;;;;5052296;28;20197;-83
2024/01/30 09:35:31;;;;;;;12.47;9.03;;;4.40;99.90;;;;;;5051870;28;20182;-80
2024/01/30 09:37:57;;;;;;;12.70;8.73;;;4.50;99.90;;;;;;5053359;28;20534;-79
2024/01/30 09:40:24;;;;;;;11.57;8.47;;;4.50;99.90;;;;;;5053185;28;20205;-80
2024/01/30 09:42:51;;;;;;;9.77;7.77;;;4.60;99.90;;;;;;5060014;28;20204;-80
2024/01/30 09:45:18;;;;;;;11.00;7.00;;;4.80;99.90;;;;;;5073903;28;20609;-81
2024/01/30 09:47:45;;;;;;;8.53;6.43;;;5.10;99.90;;;;;;5071372;28;20208;-80
2024/01/30 09:50:12;;;;;;;8.53;6.37;;;5.40;99.90;;;;;;5073928;28;20181;-79
2024/01/30 09:52:38;;;;;;;8.13;5.53;;;5.60;99.90;;;;;;5072466;28;20208;-80
2024/01/30 09:55:05;;;;;;;8.07;5.03;;;5.90;99.90;;;;;;5072297;28;20172;-80
2024/01/30 09:57:31;;;;;;;5.70;4.50;;;6.20;99.90;;;;;;5072466;28;20176;-81
2024/01/30 09:59:57;;;;;;;5.67;4.20;;;6.40;99.90;;;;;;5071711;28;20650;-83
2024/01/30 10:02:23;;;;;;;7.73;5.20;;;6.70;33.90;;;;;;5073293;28;20207;-81
2024/01/30 10:04:50;;;;;;;6.97;5.13;;;6.80;20.60;;;;;;5072124;28;20181;-81
2024/01/30 10:07:19;;;;;;;6.83;4.80;;;6.90;1.00;;;;;;5072004;28;20212;-81
2024/01/30 10:09:45;;;;;;;6.83;4.87;;;6.90;1.00;;;;;;5072763;28;20222;-81
2024/01/30 10:12:11;;;;;;;6.00;4.77;;;6.90;1.00;;;;;;5071025;28;20200;-80
2024/01/30 10:14:41;;;;;;;6.67;4.77;;;7.00;8.10;;;;;;5071722;28;20223;-84
2024/01/30 10:17:11;;;;;;;6.73;4.37;;;7.00;19.40;;;;;;5072721;28;20178;-84
2024/01/30 10:19:39;;;;;;;9.50;5.90;;;7.10;1.00;;;;;;5072302;28;20176;-82
2024/01/30 10:22:05;;;;;;;9.80;4.90;;;7.20;1.00;;;;;;5070567;28;20283;-82
2024/01/30 10:24:31;;;;;;;5.77;4.37;;;7.30;1.00;;;;;;5071260;28;20245;-82
2024/01/30 10:26:56;;;;;;;5.93;5.00;;;7.40;1.00;;;;;;5073088;28;20229;-79
2024/01/30 10:29:22;;;;;;;7.17;5.07;;;7.40;1.00;;;;;;5073099;28;20213;-80
2024/01/30 10:32:01;;;;;;;7.23;4.77;;;7.50;1.00;;;;;;5073211;28;20552;-80
2024/01/30 10:34:27;;;;;;;8.77;4.80;;;7.50;1.00;;;;;;5071544;28;20176;-81
2024/01/30 10:37:06;;;;;;;9.07;5.10;;;7.60;1.00;;;;;;5072501;28;20184;-79
2024/01/30 10:39:37;;;;;;;6.13;4.80;;;7.70;1.00;;;;;;5071685;28;20272;-80
2024/01/30 10:42:05;;;;;;;8.80;4.80;;;8.00;1.00;;;;;;5070973;28;20194;-80
2024/01/30 10:44:37;;;;;;;5.60;4.23;;;8.10;1.00;;;;;;5070891;28;20654;-79
2024/01/30 10:47:08;;;;;;;6.40;4.23;;;8.00;1.00;;;;;;5072065;28;20285;-82
2024/01/30 10:49:33;;;;;;;5.77;4.40;;;8.00;1.00;;;;;;5070795;28;20179;-83
2024/01/30 10:52:00;;;;;;;7.17;4.27;;;8.00;99.90;;;;;;5072250;28;20210;-82
2024/01/30 10:54:27;;;;;;;4.87;4.17;;;8.00;1.00;;;;;;5072655;28;20187;-81
2024/01/30 10:56:53;;;;;;;7.03;4.27;;;8.10;99.90;;;;;;5073080;28;20190;-83
2024/01/30 10:59:20;;;;;;;5.13;4.37;;;8.20;1.00;;;;;;5072581;28;20180;-81
2024/01/30 11:01:46;;;;;;;6.03;4.30;;;8.40;1.00;;;;;;5071462;28;20231;-82
2024/01/30 11:04:11;;;;;;;5.77;4.23;;;8.50;99.90;;;;;;5073956;28;20215;-82
2024/01/30 11:06:43;;;;;;;7.53;4.37;;;8.60;51.40;;;;;;5072493;28;20191;-81
2024/01/30 11:09:12;;;;;;;6.43;4.27;;;8.80;1.00;;;;;;5072753;28;20164;-82
2024/01/30 11:12:12;;;;;;;4.97;3.80;;;8.90;1.00;;;;;;5071519;28;20196;-87
2024/01/30 11:14:40;;;;;;;6.40;4.07;;;9.00;1.00;;;;;;5060857;28;20684;-86
2024/01/30 11:17:05;;;;;;;5.47;4.40;;;9.00;1.00;;;;;;5070806;28;20193;-86
2024/01/30 11:19:32;;;;;;;6.07;4.37;;;9.10;1.00;;;;;;5072112;28;20179;-81
2024/01/30 11:21:57;;;;;;;6.00;4.20;;;9.10;1.00;;;;;;5071136;28;20199;-81
2024/01/30 11:24:24;;;;;;;5.60;4.37;;;9.20;99.90;;;;;;5072363;28;20186;-83
2024/01/30 11:26:55;;;;;;;6.40;4.50;;;9.20;94.20;;;;;;5071368;28;20333;-84
2024/01/30 11:29:24;;;;;;;6.57;4.40;;;9.40;1.00;;;;;;5071409;28;20184;-83
2024/01/30 11:31:54;;;;;;;5.13;4.40;;;9.50;99.90;;;;;;5075542;28;20203;-84
2024/01/30 11:34:22;;;;;;;7.07;4.63;;;9.50;1.00;;;;;;5074752;28;20180;-83
2024/01/30 11:37:11;;;;;;;8.10;4.37;;;9.50;99.90;;;;;;5074521;28;20184;-82
2024/01/30 11:39:37;;;;;;;5.80;4.50;;;9.50;99.80;;;;;;5075414;28;20200;-81
2024/01/30 11:42:04;;;;;;;7.17;4.97;;;9.40;1.00;;;;;;5075413;28;20197;-81
2024/01/30 11:44:30;;;;;;;5.50;4.80;;;9.30;1.00;;;;;;5075736;28;20191;-81
2024/01/30 11:46:56;;;;;;;7.17;4.67;;;9.30;99.90;;;;;;5075706;28;20698;-82
2024/01/30 11:49:23;;;;;;;6.33;4.37;;;9.40;1.00;;;;;;5074510;28;20176;-81
2024/01/30 11:51:49;;;;;;;6.00;4.30;;;9.40;30.10;;;;;;5075091;28;20214;-81
2024/01/30 11:54:15;;;;;;;6.40;4.60;;;9.50;99.90;;;;;;5074091;28;20165;-82
2024/01/30 11:56:42;;;;;;;5.97;4.17;;;9.60;99.90;;;;;;5075579;28;20199;-81
2024/01/30 11:59:08;;;;;;;6.70;4.37;;;9.70;99.90;;;;;;5075922;28;20609;-81
2024/01/30 12:01:34;;;;;;;5.83;4.67;;;9.80;99.90;;;;;;5075117;28;20165;-81
2024/01/30 12:04:00;;;;;;;5.93;4.70;;;9.90;99.90;;;;;;5073948;28;20559;-81
2024/01/30 12:06:25;;;;;;;6.43;4.60;;;10.00;1.00;;;;;;5075650;28;20173;-81
2024/01/30 12:09:08;;;;;;;5.80;4.73;;;10.00;1.00;;;;;;5074305;28;20221;-81
2024/01/30 12:11:46;;;;;;;5.87;4.67;;;9.90;15.30;;;;;;5073802;28;20193;-81
2024/01/30 12:14:12;;;;;;;7.50;4.70;;;9.90;99.90;;;;;;5074508;28;20165;-81
2024/01/30 12:16:37;;;;;;;5.87;4.40;;;9.80;99.90;;;;;;5075236;28;20188;-80
2024/01/30 12:19:03;;;;;;;5.43;4.17;;;9.70;99.20;;;;;;5074564;28;20613;-81
2024/01/30 12:21:29;;;;;;;5.70;4.70;;;9.70;1.00;;;;;;5075231;28;20200;-81
2024/01/30 12:23:57;;;;;;;8.37;4.70;;;9.70;1.00;;;;;;5074972;28;20165;-81
2024/01/30 12:26:24;;;;;;;5.70;4.47;;;9.80;99.90;;;;;;5075798;28;20687;-82
2024/01/30 12:28:50;;;;;;;5.63;4.60;;;10.00;99.90;;;;;;5074323;28;20173;-82
2024/01/30 12:31:16;;;;;;;6.33;4.43;;;10.00;99.90;;;;;;5073689;28;20176;-82
2024/01/30 12:33:41;;;;;;;6.73;4.60;;;10.00;1.00;;;;;;5075473;28;20192;-83
2024/01/30 12:36:07;;;;;;;5.40;4.23;;;10.00;1.00;;;;;;5075113;28;20166;-82
2024/01/30 12:38:33;;;;;;;6.43;4.70;;;9.90;1.00;;;;;;5073908;28;20579;-82
2024/01/30 12:40:58;;;;;;;7.53;4.97;;;9.80;1.00;;;;;;5075093;28;20204;-82
2024/01/30 12:43:25;;;;;;;5.97;4.60;;;9.70;99.90;;;;;;5075236;28;20193;-83
2024/01/30 12:45:52;;;;;;;6.23;4.77;;;9.70;1.00;;;;;;5075187;28;20204;-82
2024/01/30 12:48:18;;;;;;;7.67;4.63;;;9.70;99.90;;;;;;5074370;28;20589;-82
2024/01/30 12:50:43;;;;;;;7.80;4.67;;;9.60;1.00;;;;;;5076708;28;20177;-83
2024/01/30 12:53:09;;;;;;;6.47;4.80;;;9.50;1.00;;;;;;5075174;28;20627;-85